createdAt,value
2023-01-22T00:01:18.717Z,81.73
2023-01-22T00:03:46.951Z,81.69
2023-01-22T00:06:14.724Z,81.68
2023-01-22T00:08:41.771Z,81.92
2023-01-22T00:11:10.276Z,81.59
2023-01-22T00:13:36.987Z,82.24
2023-01-22T00:16:03.855Z,81.80
2023-01-22T00:18:30.637Z,82.50
2023-01-22T00:20:57.539Z,81.70
2023-01-22T00:23:24.675Z,81.92
2023-01-22T00:26:01.279Z,81.52
2023-01-22T00:28:28.057Z,81.75
2023-01-22T00:31:02.269Z,81.09
2023-01-22T00:33:29.380Z,81.40
2023-01-22T00:35:57.180Z,81.73
2023-01-22T00:38:23.851Z,81.53
2023-01-22T00:40:50.509Z,81.70
2023-01-22T00:43:17.137Z,81.50
2023-01-22T00:45:43.806Z,81.40
2023-01-22T00:48:10.447Z,81.33
2023-01-22T00:50:37.143Z,81.75
2023-01-22T00:53:04.032Z,82.03
2023-01-22T00:55:31.013Z,81.27
2023-01-22T00:57:57.668Z,81.87
2023-01-22T01:00:24.421Z,81.37
2023-01-22T01:03:09.616Z,80.67
2023-01-22T01:05:36.303Z,81.79
2023-01-22T01:08:03.048Z,81.17
2023-01-22T01:10:29.775Z,81.87
2023-01-22T01:12:56.478Z,81.18
2023-01-22T01:15:23.162Z,81.00
2023-01-22T01:17:50.090Z,81.29
2023-01-22T01:20:17.049Z,81.34
2023-01-22T01:22:43.814Z,81.00
2023-01-22T01:25:10.471Z,80.94
2023-01-22T01:27:37.149Z,81.11
2023-01-22T01:30:04.179Z,81.84
2023-01-22T01:32:30.872Z,81.67
2023-01-22T01:34:57.521Z,81.72
2023-01-22T01:37:24.164Z,81.26
2023-01-22T01:39:52.466Z,81.03
2023-01-22T01:42:30.494Z,80.69
2023-01-22T01:45:34.545Z,81.31
2023-01-22T01:48:28.509Z,80.95
2023-01-22T01:51:04.043Z,81.06
2023-01-22T01:53:31.188Z,81.21
2023-01-22T01:56:00.773Z,81.37
2023-01-22T01:58:32.268Z,80.96
2023-01-22T02:01:05.437Z,80.79
2023-01-22T02:03:32.235Z,81.91
2023-01-22T02:05:59.002Z,82.17
2023-01-22T02:08:25.769Z,82.03
2023-01-22T02:10:53.845Z,81.02
2023-01-22T02:13:24.506Z,81.15
2023-01-22T02:15:51.272Z,80.89
2023-01-22T02:18:18.107Z,81.93
2023-01-22T02:20:56.619Z,81.65
2023-01-22T02:23:24.273Z,81.45
2023-01-22T02:25:51.633Z,82.11
2023-01-22T02:28:18.963Z,82.00
2023-01-22T02:30:45.895Z,82.01
2023-01-22T02:33:12.617Z,81.81
2023-01-22T02:35:39.371Z,81.92
2023-01-22T02:38:06.269Z,82.22
2023-01-22T02:40:33.797Z,81.43
2023-01-22T02:43:00.735Z,82.38
2023-01-22T02:45:27.408Z,82.25
2023-01-22T02:47:54.083Z,81.55
2023-01-22T02:50:20.957Z,81.16
2023-01-22T02:52:47.708Z,81.68
2023-01-22T02:55:14.336Z,82.10
2023-01-22T02:57:41.010Z,82.20
2023-01-22T03:00:08.869Z,81.27
2023-01-22T03:02:35.528Z,81.68
2023-01-22T03:05:05.287Z,81.96
2023-01-22T03:07:42.252Z,82.21
2023-01-22T03:10:11.990Z,82.53
2023-01-22T03:12:57.189Z,82.11
2023-01-22T03:15:42.575Z,83.01
2023-01-22T03:18:27.672Z,81.76
2023-01-22T03:21:13.016Z,82.68
2023-01-22T03:23:40.107Z,81.78
2023-01-22T03:26:07.453Z,82.12
2023-01-22T03:28:34.410Z,82.31
2023-01-22T03:31:01.168Z,82.57
2023-01-22T03:33:28.297Z,82.77
2023-01-22T03:36:00.058Z,83.11
2023-01-22T03:38:26.784Z,82.09
2023-01-22T03:40:53.570Z,81.89
2023-01-22T03:43:20.261Z,82.86
2023-01-22T03:45:47.072Z,82.09
2023-01-22T03:48:13.747Z,82.44
2023-01-22T03:50:40.416Z,82.95
2023-01-22T03:53:07.117Z,82.44
2023-01-22T03:55:33.830Z,82.17
2023-01-22T03:58:00.497Z,82.94
2023-01-22T04:00:27.207Z,82.66
2023-01-22T04:02:54.729Z,82.79
2023-01-22T04:05:21.411Z,82.53
2023-01-22T04:07:50.250Z,82.96
2023-01-22T04:10:18.114Z,82.79
2023-01-22T04:12:44.949Z,82.44
2023-01-22T04:15:12.048Z,82.89
2023-01-22T04:17:38.766Z,82.92
2023-01-22T04:20:05.942Z,82.97
2023-01-22T04:22:32.618Z,83.30
2023-01-22T04:24:59.288Z,83.23
2023-01-22T04:27:26.008Z,83.08
2023-01-22T04:29:52.710Z,83.34
2023-01-22T04:32:19.382Z,83.04
2023-01-22T04:34:47.392Z,83.21
2023-01-22T04:37:14.095Z,83.35
2023-01-22T04:39:40.768Z,82.83
2023-01-22T04:42:10.621Z,82.98
2023-01-22T04:44:37.294Z,83.32
2023-01-22T04:47:04.020Z,83.01
2023-01-22T04:49:30.685Z,84.05
2023-01-22T04:51:58.068Z,83.30
2023-01-22T04:54:24.928Z,83.65
2023-01-22T04:56:52.709Z,83.34
2023-01-22T04:59:19.425Z,83.78
2023-01-22T05:01:46.105Z,83.33
2023-01-22T05:04:12.825Z,84.22
2023-01-22T05:06:39.498Z,83.65
2023-01-22T05:09:06.159Z,84.52
2023-01-22T05:11:32.861Z,83.97
2023-01-22T05:13:59.637Z,83.66
2023-01-22T05:16:26.318Z,83.79
2023-01-22T05:18:53.006Z,84.14
2023-01-22T05:21:19.684Z,84.24
2023-01-22T05:23:47.027Z,84.29
2023-01-22T05:26:13.799Z,84.13
2023-01-22T05:28:40.516Z,83.49
2023-01-22T05:31:07.387Z,83.57
2023-01-22T05:33:34.341Z,83.94
2023-01-22T05:36:03.075Z,84.29
2023-01-22T05:38:30.440Z,84.84
2023-01-22T05:40:57.102Z,84.00
2023-01-22T05:43:23.864Z,83.98
2023-01-22T05:45:50.627Z,84.00
2023-01-22T05:48:17.422Z,84.75
2023-01-22T05:50:44.118Z,84.24
2023-01-22T05:53:10.771Z,83.81
2023-01-22T05:55:37.586Z,84.25
2023-01-22T05:58:06.272Z,84.01
2023-01-22T06:00:33.079Z,84.48
2023-01-22T06:03:00.841Z,84.54
2023-01-22T06:05:27.781Z,84.23
2023-01-22T06:07:54.871Z,84.25
2023-01-22T06:10:21.613Z,84.38
2023-01-22T06:12:48.353Z,83.95
2023-01-22T06:15:15.081Z,84.47
2023-01-22T06:17:41.783Z,83.97
2023-01-22T06:20:10.075Z,83.98
2023-01-22T06:22:36.756Z,84.25
2023-01-22T06:25:03.931Z,84.37
2023-01-22T06:27:30.609Z,84.14
2023-01-22T06:29:57.329Z,84.49
2023-01-22T06:32:24.005Z,84.57
2023-01-22T06:34:50.684Z,84.20
2023-01-22T06:37:17.477Z,84.02
2023-01-22T06:39:44.121Z,84.14
2023-01-22T06:42:10.816Z,84.13
2023-01-22T06:44:37.471Z,84.15
2023-01-22T06:47:04.153Z,84.04
2023-01-22T06:49:30.844Z,84.42
2023-01-22T06:51:57.515Z,84.36
2023-01-22T06:54:24.203Z,84.40
2023-01-22T06:56:50.868Z,84.44
2023-01-22T06:59:17.540Z,84.34
2023-01-22T07:01:44.287Z,84.88
2023-01-22T07:04:11.018Z,84.66
2023-01-22T07:06:37.678Z,84.08
2023-01-22T07:09:04.375Z,84.09
2023-01-22T07:11:31.034Z,84.72
2023-01-22T07:13:57.732Z,84.59
2023-01-22T07:16:24.418Z,84.62
2023-01-22T07:18:51.165Z,84.09
2023-01-22T07:21:17.810Z,84.75
2023-01-22T07:23:44.483Z,84.26
2023-01-22T07:26:11.183Z,84.72
2023-01-22T07:28:37.863Z,84.79
2023-01-22T07:31:09.446Z,84.76
2023-01-22T07:33:36.332Z,84.74
2023-01-22T07:36:03.120Z,84.83
2023-01-22T07:38:29.950Z,84.61
2023-01-22T07:41:01.369Z,84.48
2023-01-22T07:43:28.478Z,84.89
2023-01-22T07:45:55.178Z,85.05
2023-01-22T07:48:21.641Z,84.81
2023-01-22T07:50:48.219Z,84.50
2023-01-22T07:53:14.879Z,84.83
2023-01-22T07:55:41.506Z,85.09
2023-01-22T07:58:08.377Z,84.73
2023-01-22T08:00:35.823Z,84.78
2023-01-22T08:03:06.777Z,84.96
2023-01-22T08:05:33.331Z,85.27
2023-01-22T08:07:59.838Z,84.46
2023-01-22T08:10:26.504Z,84.60
2023-01-22T08:12:53.023Z,84.63
2023-01-22T08:15:19.502Z,84.79
2023-01-22T08:17:50.076Z,84.62
2023-01-22T08:20:16.945Z,84.90
2023-01-22T08:22:45.291Z,84.49
2023-01-22T08:25:11.994Z,84.55
2023-01-22T08:27:38.546Z,84.54
2023-01-22T08:30:05.899Z,84.59
2023-01-22T08:32:32.446Z,84.02
2023-01-22T08:34:59.068Z,84.30
2023-01-22T08:37:25.799Z,84.26
2023-01-22T08:39:52.255Z,84.83
2023-01-22T08:42:18.803Z,84.56
2023-01-22T08:44:45.301Z,84.72
2023-01-22T08:47:11.862Z,84.68
2023-01-22T08:49:38.423Z,84.69
2023-01-22T08:52:05.400Z,84.74
2023-01-22T09:02:49.327Z,84.31
2023-01-22T09:05:16.232Z,84.74
2023-01-22T09:07:42.824Z,84.40
2023-01-22T09:10:12.237Z,84.29
2023-01-22T09:12:41.824Z,84.27
2023-01-22T09:15:08.703Z,84.47
2023-01-22T09:17:35.196Z,84.78
2023-01-22T09:20:02.054Z,85.19
2023-01-22T09:22:28.561Z,85.28
2023-01-22T09:24:55.201Z,85.78
2023-01-22T09:27:21.716Z,85.27
2023-01-22T09:29:48.864Z,84.79
2023-01-22T09:32:15.429Z,85.46
2023-01-22T09:34:41.999Z,85.38
2023-01-22T09:37:11.609Z,85.19
2023-01-22T09:39:38.225Z,85.52
2023-01-22T09:42:06.981Z,85.33
2023-01-22T09:44:39.278Z,84.61
2023-01-22T09:47:19.447Z,84.77
2023-01-22T09:50:17.790Z,84.56
2023-01-22T09:52:44.729Z,84.72
2023-01-22T09:55:13.839Z,84.64
2023-01-22T09:57:46.165Z,84.68
2023-01-22T10:00:30.777Z,84.67
2023-01-22T10:03:06.855Z,84.85
2023-01-22T10:05:41.096Z,84.44
2023-01-22T10:08:20.178Z,85.00
2023-01-22T10:10:46.848Z,85.58
2023-01-22T10:13:33.921Z,84.85
2023-01-22T10:16:01.304Z,84.78
2023-01-22T10:18:46.357Z,84.99
2023-01-22T10:21:19.478Z,84.91
2023-01-22T10:23:46.669Z,84.27
2023-01-22T10:26:19.530Z,84.55
2023-01-22T10:28:49.090Z,84.41
2023-01-22T10:31:26.624Z,84.78
2023-01-22T10:34:00.408Z,84.43
2023-01-22T10:36:28.246Z,84.23
2023-01-22T10:39:13.863Z,84.00
2023-01-22T10:41:45.519Z,84.16
2023-01-22T10:44:22.892Z,83.91
2023-01-22T10:46:50.880Z,83.89
2023-01-22T10:49:19.234Z,84.22
2023-01-22T10:51:51.778Z,84.78
2023-01-22T10:54:31.873Z,84.36
2023-01-22T10:57:15.821Z,83.94
2023-01-22T10:59:50.059Z,84.24
2023-01-22T11:02:24.787Z,84.74
2023-01-22T11:04:54.376Z,83.91
2023-01-22T11:07:24.339Z,84.29
2023-01-22T11:10:17.716Z,83.78
2023-01-22T11:12:49.149Z,83.50
2023-01-22T11:15:30.353Z,83.91
2023-01-22T11:18:01.290Z,84.01
2023-01-22T11:20:54.435Z,83.57
2023-01-22T11:23:47.380Z,83.58
2023-01-22T11:26:29.545Z,83.37
2023-01-22T11:29:14.620Z,83.34
2023-01-22T11:32:00.679Z,83.79
2023-01-22T11:34:32.544Z,83.05
2023-01-22T11:37:14.141Z,83.39
2023-01-22T11:39:55.981Z,83.21
2023-01-22T11:42:40.252Z,82.54
2023-01-22T11:45:25.435Z,83.05
2023-01-22T11:48:21.700Z,82.99
2023-01-22T11:51:12.901Z,82.88
2023-01-22T11:53:54.835Z,82.84
2023-01-22T11:56:42.802Z,82.66
2023-01-22T11:59:23.477Z,82.51
2023-01-22T12:02:11.774Z,82.83
2023-01-22T12:05:16.913Z,82.62
2023-01-22T12:08:02.603Z,82.64
2023-01-22T12:10:54.822Z,82.12
2023-01-22T12:13:36.019Z,82.66
2023-01-22T12:16:11.654Z,82.41
2023-01-22T12:19:00.119Z,82.75
2023-01-22T12:21:44.521Z,82.73
2023-01-22T12:24:18.485Z,82.92
2023-01-22T12:26:52.482Z,82.62
2023-01-22T12:29:29.497Z,82.64
2023-01-22T12:32:10.671Z,83.20
2023-01-22T12:35:00.026Z,83.23
2023-01-22T12:37:37.866Z,82.84
2023-01-22T12:40:43.792Z,83.01
2023-01-22T12:43:10.293Z,83.21
2023-01-22T12:45:53.986Z,82.99
2023-01-22T12:48:55.715Z,82.92
2023-01-22T12:51:24.715Z,82.82
2023-01-22T12:53:51.319Z,82.74
2023-01-22T12:56:29.918Z,82.62
2023-01-22T12:58:57.822Z,82.91
2023-01-22T13:01:32.971Z,82.90
2023-01-22T13:04:02.852Z,82.84
2023-01-22T13:06:40.238Z,83.02
2023-01-22T13:09:23.855Z,82.85
2023-01-22T13:11:50.362Z,82.81
2023-01-22T13:14:26.582Z,82.94
2023-01-22T13:16:57.061Z,83.31
2023-01-22T13:19:26.465Z,82.89
2023-01-22T13:21:53.551Z,83.12
2023-01-22T13:24:21.601Z,83.13
2023-01-22T13:26:59.929Z,82.79
2023-01-22T13:29:32.862Z,82.99
2023-01-22T13:32:21.122Z,82.87
2023-01-22T13:34:47.669Z,82.95
2023-01-22T13:37:25.642Z,83.15
2023-01-22T13:39:52.616Z,82.84
2023-01-22T13:42:19.376Z,82.88
2023-01-22T13:44:49.592Z,82.75
2023-01-22T13:47:35.628Z,82.81
2023-01-22T13:50:02.679Z,82.83
2023-01-22T13:52:29.412Z,83.01
2023-01-22T13:55:07.959Z,82.94
2023-01-22T13:57:34.461Z,82.36
2023-01-22T14:00:02.130Z,82.64
2023-01-22T14:02:31.835Z,82.49
2023-01-22T14:04:58.725Z,82.21
2023-01-22T14:07:30.961Z,82.46
2023-01-22T14:10:10.304Z,82.43
2023-01-22T14:12:37.012Z,82.79
2023-01-22T14:15:15.865Z,82.56
2023-01-22T14:17:42.614Z,82.68
2023-01-22T14:20:10.285Z,82.59
2023-01-22T14:22:37.057Z,82.86
2023-01-22T14:25:04.498Z,82.88
2023-01-22T14:27:44.173Z,82.82
2023-01-22T14:30:16.594Z,83.05
2023-01-22T14:32:44.690Z,82.99
2023-01-22T14:35:37.233Z,83.13
2023-01-22T14:38:05.171Z,83.57
2023-01-22T14:40:35.033Z,83.63
2023-01-22T14:43:07.410Z,83.70
2023-01-22T14:45:34.290Z,83.25
2023-01-22T14:48:01.019Z,83.52
2023-01-22T14:50:27.558Z,83.18
2023-01-22T14:52:54.202Z,83.71
2023-01-22T14:55:21.381Z,83.99
2023-01-22T14:57:47.989Z,83.75
2023-01-22T15:00:17.887Z,83.92
2023-01-22T15:02:44.616Z,84.18
2023-01-22T15:05:12.278Z,84.03
2023-01-22T15:07:38.912Z,84.12
2023-01-22T15:10:07.447Z,84.03
2023-01-22T15:12:34.476Z,84.33
2023-01-22T15:15:01.010Z,84.01
2023-01-22T15:17:27.820Z,83.70
2023-01-22T15:19:54.321Z,83.87
2023-01-22T15:22:20.820Z,83.74
2023-01-22T15:24:47.397Z,84.18
2023-01-22T15:27:18.362Z,84.02
2023-01-22T15:29:45.972Z,83.95
2023-01-22T15:32:12.524Z,84.12
2023-01-22T15:34:39.036Z,83.90
2023-01-22T15:37:05.816Z,84.03
2023-01-22T15:39:32.332Z,84.16
2023-01-22T15:41:58.837Z,84.28
2023-01-22T15:44:25.473Z,84.50
2023-01-22T15:46:51.957Z,84.22
2023-01-22T15:49:18.440Z,84.27
2023-01-22T15:51:44.923Z,84.05
2023-01-22T15:54:14.999Z,84.10
2023-01-22T15:56:41.654Z,84.08
2023-01-22T15:59:08.595Z,83.92
2023-01-22T16:01:35.177Z,84.08
2023-01-22T16:04:02.970Z,84.30
2023-01-22T16:06:31.728Z,84.05
2023-01-22T16:08:59.504Z,83.90
2023-01-22T16:11:27.848Z,84.09
2023-01-22T16:13:54.657Z,83.93
2023-01-22T16:16:26.961Z,84.18
2023-01-22T16:18:54.942Z,84.25
2023-01-22T16:21:22.856Z,84.24
2023-01-22T16:23:53.957Z,84.54
2023-01-22T16:26:23.579Z,84.50
2023-01-22T16:28:52.387Z,84.86
2023-01-22T16:31:23.098Z,84.93
2023-01-22T16:33:53.221Z,84.86
2023-01-22T16:36:21.414Z,85.06
2023-01-22T16:38:48.919Z,85.05
2023-01-22T16:41:24.691Z,84.79
2023-01-22T16:43:54.467Z,85.22
2023-01-22T16:46:23.811Z,85.45
2023-01-22T16:48:56.123Z,85.43
2023-01-22T16:51:25.160Z,85.42
2023-01-22T16:53:52.597Z,85.25
2023-01-22T16:56:19.336Z,85.13
2023-01-22T16:58:46.019Z,85.40
2023-01-22T17:01:14.940Z,85.11
2023-01-22T17:03:42.413Z,85.13
2023-01-22T17:06:25.571Z,85.53
2023-01-22T17:08:53.214Z,85.25
2023-01-22T17:11:19.918Z,85.40
2023-01-22T17:13:47.330Z,85.44
2023-01-22T17:16:15.365Z,85.41
2023-01-22T17:18:42.329Z,85.08
2023-01-22T17:21:12.848Z,85.37
2023-01-22T17:23:39.920Z,85.45
2023-01-22T17:26:09.575Z,85.12
2023-01-22T17:28:37.602Z,85.46
2023-01-22T17:31:06.104Z,85.11
2023-01-22T17:33:34.430Z,85.15
2023-01-22T17:36:01.242Z,85.56
2023-01-22T17:38:29.533Z,85.13
2023-01-22T17:40:58.136Z,85.14
2023-01-22T17:43:26.847Z,85.43
2023-01-22T17:45:53.919Z,85.16
2023-01-22T17:48:20.612Z,85.40
2023-01-22T17:50:47.371Z,85.44
2023-01-22T17:53:13.883Z,85.32
2023-01-22T17:55:41.797Z,85.52
2023-01-22T17:58:08.434Z,85.34
2023-01-22T18:00:37.630Z,85.11
2023-01-22T18:03:04.797Z,85.27
2023-01-22T18:05:33.019Z,84.68
2023-01-22T18:07:59.568Z,84.57
2023-01-22T18:10:26.535Z,84.80
2023-01-22T18:12:53.067Z,84.93
2023-01-22T18:15:19.874Z,84.88
2023-01-22T18:17:48.522Z,84.76
2023-01-22T18:20:15.548Z,84.74
2023-01-22T18:22:42.094Z,84.56
2023-01-22T18:25:08.786Z,84.63
2023-01-22T18:27:35.254Z,84.38
2023-01-22T18:30:01.792Z,84.46
2023-01-22T18:32:28.741Z,84.58
2023-01-22T18:34:55.289Z,84.01
2023-01-22T18:37:21.783Z,84.18
2023-01-22T18:39:48.321Z,84.68
2023-01-22T18:42:14.827Z,84.34
2023-01-22T18:44:41.280Z,84.00
2023-01-22T18:47:11.054Z,84.20
2023-01-22T18:49:37.574Z,83.89
2023-01-22T18:52:04.080Z,83.47
2023-01-22T18:54:30.695Z,83.99
2023-01-22T18:56:57.288Z,83.37
2023-01-22T18:59:23.936Z,83.55
2023-01-22T19:01:51.697Z,84.01
2023-01-22T19:04:21.698Z,83.76
2023-01-22T19:06:53.378Z,83.70
2023-01-22T19:09:20.749Z,83.59
2023-01-22T19:11:48.471Z,84.18
2023-01-22T19:14:21.083Z,84.23
2023-01-22T19:16:51.245Z,84.18
2023-01-22T19:19:17.830Z,84.22
2023-01-22T19:21:47.065Z,84.21
2023-01-22T19:24:16.078Z,84.26
2023-01-22T19:26:43.622Z,84.11
2023-01-22T19:29:13.723Z,84.41
2023-01-22T19:31:43.139Z,84.43
2023-01-22T19:34:12.510Z,84.46
2023-01-22T19:36:39.855Z,84.67
2023-01-22T19:39:12.111Z,84.47
2023-01-22T19:41:40.325Z,84.97
2023-01-22T19:44:09.060Z,84.33
2023-01-22T19:46:37.883Z,84.30
2023-01-22T19:49:05.067Z,84.31
2023-01-22T19:51:31.869Z,84.53
2023-01-22T19:54:00.193Z,84.58
2023-01-22T19:56:29.544Z,84.29
2023-01-22T19:59:06.240Z,84.49
2023-01-22T20:01:34.683Z,84.18
2023-01-22T20:04:01.253Z,84.48
2023-01-22T20:06:27.797Z,84.72
2023-01-22T20:08:56.110Z,84.68
2023-01-22T20:11:23.485Z,84.43
2023-01-22T20:13:51.184Z,84.84
2023-01-22T20:16:26.761Z,84.89
2023-01-22T20:18:54.450Z,84.86
2023-01-22T20:21:22.964Z,84.84
2023-01-22T20:23:50.455Z,84.84
2023-01-22T20:26:19.401Z,84.97
2023-01-22T20:28:46.959Z,85.28
2023-01-22T20:31:20.107Z,85.11
2023-01-22T20:33:47.122Z,85.10
2023-01-22T20:36:17.297Z,84.81
2023-01-22T20:38:45.750Z,84.91
2023-01-22T20:41:13.596Z,84.90
2023-01-22T20:43:42.099Z,84.77
2023-01-22T20:46:20.471Z,84.85
2023-01-22T20:48:47.610Z,84.88
2023-01-22T20:51:19.941Z,85.12
2023-01-22T20:53:47.871Z,85.05
2023-01-22T20:56:17.234Z,84.76
2023-01-22T20:58:43.854Z,85.34
2023-01-22T21:01:14.632Z,85.30
2023-01-22T21:03:44.624Z,85.53
2023-01-22T21:06:14.438Z,85.55
2023-01-22T21:08:42.588Z,85.27
2023-01-22T21:11:12.108Z,85.75
2023-01-22T21:13:38.903Z,85.47
2023-01-22T21:16:14.137Z,85.41
2023-01-22T21:18:43.697Z,86.06
2023-01-22T21:21:12.922Z,85.74
2023-01-22T21:23:39.760Z,85.94
2023-01-22T21:26:08.924Z,85.72
2023-01-22T21:28:36.024Z,85.79
2023-01-22T21:31:11.041Z,85.81
2023-01-22T21:33:37.754Z,86.14
2023-01-22T21:36:05.667Z,86.74
2023-01-22T21:38:32.250Z,86.73
2023-01-22T21:41:16.259Z,86.79
2023-01-22T21:44:03.756Z,86.44
2023-01-22T21:46:38.241Z,86.62
2023-01-22T21:49:16.151Z,86.54
2023-01-22T21:51:45.328Z,86.87
2023-01-22T21:54:18.050Z,87.03
2023-01-22T21:56:44.528Z,87.11
2023-01-22T21:59:11.355Z,87.05
2023-01-22T22:01:38.803Z,87.38
2023-01-22T22:04:06.921Z,87.56
2023-01-22T22:06:34.546Z,87.19
2023-01-22T22:09:03.861Z,87.24
2023-01-22T22:11:30.582Z,87.64
2023-01-22T22:13:57.303Z,87.65
2023-01-22T22:16:24.501Z,87.17
2023-01-22T22:18:51.431Z,87.34
2023-01-22T22:21:18.118Z,87.22
2023-01-22T22:23:44.866Z,87.26
2023-01-22T22:26:11.966Z,87.24
2023-01-22T22:28:38.660Z,87.50
2023-01-22T22:31:11.543Z,87.32
2023-01-22T22:33:49.675Z,87.31
2023-01-22T22:36:18.875Z,87.32
2023-01-22T22:38:45.637Z,87.64
2023-01-22T22:41:15.084Z,87.06
2023-01-22T22:43:46.739Z,87.19
2023-01-22T22:46:23.396Z,87.06
2023-01-22T22:48:51.143Z,86.64
2023-01-22T22:51:28.939Z,86.98
2023-01-22T22:53:58.861Z,86.84
2023-01-22T22:56:26.318Z,87.21
2023-01-22T22:58:54.887Z,87.02
2023-01-22T23:01:24.084Z,86.67
2023-01-22T23:03:51.362Z,86.79
2023-01-22T23:06:20.954Z,86.52
2023-01-22T23:08:53.054Z,86.33
2023-01-22T23:11:22.711Z,86.40
2023-01-22T23:13:49.884Z,86.64
2023-01-22T23:16:18.916Z,86.50
2023-01-22T23:18:48.249Z,86.56
2023-01-22T23:21:18.874Z,86.82
2023-01-22T23:23:45.795Z,87.02
2023-01-22T23:26:16.047Z,86.40
2023-01-22T23:28:43.551Z,86.67
2023-01-22T23:31:13.415Z,86.83
2023-01-22T23:33:40.293Z,86.35
2023-01-22T23:36:10.647Z,86.46
2023-01-22T23:38:38.074Z,86.61
2023-01-22T23:41:07.899Z,86.62
2023-01-22T23:43:34.774Z,86.16
2023-01-22T23:46:02.278Z,86.93
2023-01-22T23:48:29.037Z,86.73
2023-01-22T23:50:55.739Z,86.12
2023-01-22T23:53:22.859Z,86.54
2023-01-22T23:55:49.605Z,86.72
2023-01-22T23:58:16.303Z,86.47
